Time;durP1;ratioP1;P1;durP2;ratioP2;P2;SDS_P1;SDS_P2;PMS_P1;PMS_P2;Temp;Humidity;BMP_temperature;BMP_pressure;BME280_temperature;BME280_humidity;BME280_pressure;Samples;Min_cycle;Max_cycle;Signal;HPM_P1;HPM_P2
2022/05/22 00:00:46;;;;;;;8.10;3.60;;;;;;;11.91;91.96;94125.66;5034571;28;20281;-72
2022/05/22 00:03:30;;;;;;;7.70;3.30;;;;;;;11.86;92.96;94112.66;5018738;28;20610;-72
2022/05/22 00:06:14;;;;;;;9.13;3.87;;;;;;;11.75;92.78;94109.16;5013735;28;20226;-72
2022/05/22 00:08:58;;;;;;;5.70;3.93;;;;;;;11.62;93.23;94106.78;5031595;28;20206;-72
2022/05/22 00:11:42;;;;;;;5.00;3.80;;;;;;;11.50;92.38;94105.94;5003312;28;20289;-72
2022/05/22 00:14:27;;;;;;;4.60;3.73;;;;;;;11.38;92.48;94098.72;5030485;28;20613;-72
2022/05/22 00:17:11;;;;;;;4.37;3.40;;;;;;;11.24;92.30;94095.66;5032539;28;20777;-72
2022/05/22 00:19:56;;;;;;;5.47;3.43;;;;;;;11.15;92.98;94099.22;5030091;28;20189;-71
2022/05/22 00:22:42;;;;;;;4.83;4.30;;;;;;;11.29;91.32;94094.63;5036935;28;20226;-72
2022/05/22 00:25:26;;;;;;;5.13;3.70;;;;;;;11.30;91.54;94098.88;5021021;28;20202;-72
2022/05/22 00:28:09;;;;;;;6.63;4.20;;;;;;;11.25;93.56;94091.50;5030829;28;20206;-72
2022/05/22 00:30:53;;;;;;;5.27;3.60;;;;;;;11.17;92.39;94086.06;5011386;28;20198;-72
2022/05/22 00:33:38;;;;;;;5.83;3.93;;;;;;;11.10;92.77;94086.25;5022847;28;20577;-72
2022/05/22 00:36:23;;;;;;;5.37;4.30;;;;;;;11.01;93.28;94079.31;5028641;28;20238;-72
2022/05/22 00:39:07;;;;;;;5.80;4.80;;;;;;;10.78;94.50;94074.16;5015682;28;20252;-72
2022/05/22 00:41:55;;;;;;;6.27;5.00;;;;;;;10.61;94.59;94070.75;5024927;28;20195;-72
2022/05/22 00:44:40;;;;;;;8.57;5.47;;;;;;;10.51;94.93;94056.72;5011527;28;20214;-72
2022/05/22 00:47:24;;;;;;;6.67;5.20;;;;;;;10.40;94.65;94057.31;5017693;28;20203;-72
2022/05/22 00:50:08;;;;;;;4.33;3.93;;;;;;;10.29;95.70;94063.50;5002805;28;20205;-72
2022/05/22 00:52:57;;;;;;;8.07;5.20;;;;;;;10.21;96.58;94060.09;5013320;28;20268;-72
2022/05/22 00:55:41;;;;;;;6.70;5.13;;;;;;;10.13;97.60;94069.34;5023066;28;20578;-72
2022/05/22 00:58:29;;;;;;;6.30;5.23;;;;;;;10.09;97.73;94066.22;5026273;28;20298;-72
2022/05/22 01:01:14;;;;;;;10.27;5.30;;;;;;;10.02;97.71;94069.91;5014791;28;20238;-72
2022/05/22 01:03:58;;;;;;;7.03;5.73;;;;;;;9.99;96.93;94065.47;5013768;28;20210;-72
2022/05/22 01:06:42;;;;;;;13.43;7.67;;;;;;;9.97;97.32;94065.31;4996335;28;20203;-72
2022/05/22 01:09:31;;;;;;;6.93;6.00;;;;;;;10.00;97.04;94063.41;4994779;28;20203;-72
2022/05/22 01:12:23;;;;;;;10.03;6.13;;;;;;;9.93;98.36;94053.81;4982606;28;20198;-72
2022/05/22 01:15:12;;;;;;;7.80;6.30;;;;;;;9.94;97.93;94057.34;4992432;28;20283;-72
2022/05/22 01:17:57;;;;;;;9.47;6.53;;;;;;;9.96;98.37;94063.84;4994649;28;20245;-72
2022/05/22 01:20:50;;;;;;;8.37;6.53;;;;;;;10.01;98.12;94062.81;5007775;28;20203;-72
2022/05/22 01:23:35;;;;;;;6.83;5.93;;;;;;;9.90;99.10;94063.38;5012386;28;20275;-71
2022/05/22 01:26:27;;;;;;;6.03;5.43;;;;;;;9.77;99.25;94071.44;5003559;28;20210;-72
2022/05/22 01:29:23;;;;;;;8.83;6.23;;;;;;;9.64;99.89;94070.50;5006362;28;20234;-71
2022/05/22 01:32:08;;;;;;;7.63;6.43;;;;;;;9.62;99.35;94072.41;4991432;28;20241;-72
2022/05/22 01:34:53;;;;;;;9.77;7.07;;;;;;;9.60;99.72;94070.19;4989270;28;20254;-72
2022/05/22 01:37:39;;;;;;;7.00;6.30;;;;;;;9.54;99.46;94066.19;4981811;28;20289;-72
2022/05/22 01:40:27;;;;;;;8.47;7.00;;;;;;;9.45;99.40;94064.09;4986842;28;20676;-71
2022/05/22 01:43:12;;;;;;;10.93;7.20;;;;;;;9.39;100.00;94055.22;5000688;28;20564;-72
2022/05/22 01:46:01;;;;;;;8.63;6.73;;;;;;;9.31;100.00;94056.09;4994265;28;20204;-72
2022/05/22 01:48:45;;;;;;;9.83;7.53;;;;;;;9.23;100.00;94055.44;4989303;28;20539;-72
2022/05/22 01:51:37;;;;;;;9.13;8.00;;;;;;;9.21;100.00;94052.50;4989728;28;20214;-72
2022/05/22 01:54:21;;;;;;;12.87;8.17;;;;;;;9.19;100.00;94054.41;4990383;28;20617;-72
2022/05/22 01:57:05;;;;;;;13.83;8.67;;;;;;;9.15;100.00;94054.81;4985546;28;20208;-72
2022/05/22 01:59:50;;;;;;;10.93;9.20;;;;;;;9.17;100.00;94041.00;4995065;28;20202;-72
2022/05/22 02:02:40;;;;;;;9.43;7.20;;;;;;;9.17;100.00;94041.00;4994210;28;20227;-72
2022/05/22 02:05:25;;;;;;;10.17;8.47;;;;;;;9.10;100.00;94041.84;5009822;28;20203;-71
2022/05/22 02:08:19;;;;;;;11.30;9.67;;;;;;;9.02;100.00;94040.47;5014074;28;20214;-72
2022/05/22 02:11:06;;;;;;;15.83;10.63;;;;;;;9.01;100.00;94027.81;5010583;28;20738;-73
2022/05/22 02:13:51;;;;;;;15.43;10.20;;;;;;;9.01;100.00;94031.34;5009979;28;20205;-72
2022/05/22 02:16:35;;;;;;;10.17;9.17;;;;;;;8.99;100.00;94036.78;5022921;28;20231;-72
2022/05/22 02:19:19;;;;;;;13.20;10.43;;;;;;;8.93;100.00;94027.91;5006537;28;20210;-73
2022/05/22 02:22:04;;;;;;;12.53;9.03;;;;;;;8.86;100.00;94035.09;5008249;28;20226;-72
2022/05/22 02:24:50;;;;;;;11.17;8.57;;;;;;;8.83;100.00;94015.94;5001076;28;20198;-72
2022/05/22 02:27:34;;;;;;;15.77;8.87;;;;;;;8.77;100.00;94032.22;5015323;28;20206;-72
2022/05/22 02:30:23;;;;;;;12.53;10.03;;;;;;;8.82;100.00;94018.00;5010054;28;20253;-72
2022/05/22 02:33:07;;;;;;;15.27;9.50;;;;;;;8.79;100.00;94030.31;5017972;28;20691;-72
2022/05/22 02:35:58;;;;;;;11.80;9.77;;;;;;;8.72;100.00;94024.81;5028332;28;20214;-72
2022/05/22 02:38:48;;;;;;;15.23;9.53;;;;;;;8.82;100.00;94028.44;5015135;28;20209;-73
2022/05/22 02:41:34;;;;;;;12.73;10.20;;;;;;;8.83;100.00;94013.13;5012783;28;20664;-72
2022/05/22 02:44:18;;;;;;;16.60;9.77;;;;;;;8.79;100.00;94012.81;5023844;28;20226;-71
2022/05/22 02:47:03;;;;;;;14.90;10.73;;;;;;;8.74;100.00;94022.19;5023055;28;20209;-72
2022/05/22 02:49:47;;;;;;;14.77;11.20;;;;;;;8.62;100.00;94010.06;5040624;28;20193;-72
2022/05/22 02:52:31;;;;;;;14.07;10.93;;;;;;;8.58;100.00;94006.97;5000986;28;20254;-72
2022/05/22 02:55:16;;;;;;;13.50;11.30;;;;;;;8.47;100.00;94011.72;5009020;28;20234;-72
2022/05/22 02:58:01;;;;;;;14.40;11.77;;;;;;;8.35;100.00;94005.16;5016611;28;20221;-72
2022/05/22 03:00:45;;;;;;;15.67;11.60;;;;;;;8.24;100.00;94011.22;5017564;28;20196;-72
2022/05/22 03:03:31;;;;;;;14.67;11.43;;;;;;;8.20;100.00;94013.69;5003498;28;20280;-72
2022/05/22 03:09:19;;;;;;;15.60;11.63;;;;;;;8.23;100.00;94009.75;5029565;28;20206;-72
2022/05/22 03:12:14;;;;;;;23.23;12.43;;;;;;;8.20;100.00;94004.56;5024147;28;20615;-71
2022/05/22 03:15:00;;;;;;;20.30;13.70;;;;;;;8.19;100.00;94003.84;5008992;28;20584;-71
2022/05/22 03:17:46;;;;;;;21.80;14.03;;;;;;;8.08;100.00;94001.53;4991632;28;20248;-72
2022/05/22 03:20:31;;;;;;;21.23;14.17;;;;;;;8.02;100.00;94003.84;5018311;28;20237;-71
2022/05/22 03:23:18;;;;;;;16.77;13.53;;;;;;;7.96;100.00;94006.84;5018403;28;20202;-71
2022/05/22 03:26:03;;;;;;;20.67;13.63;;;;;;;7.95;100.00;94013.75;5018354;28;20214;-71
2022/05/22 03:28:48;;;;;;;19.13;13.23;;;;;;;7.93;100.00;94004.47;5010660;28;20536;-71
2022/05/22 03:31:32;;;;;;;19.30;12.77;;;;;;;7.69;100.00;94003.97;5011154;28;20210;-71
2022/05/22 03:34:17;;;;;;;17.97;13.00;;;;;;;7.68;100.00;94008.06;5020624;28;20199;-71
2022/05/22 03:37:08;;;;;;;20.17;12.73;;;;;;;7.90;100.00;94005.63;5003164;28;20195;-71
2022/05/22 03:39:53;;;;;;;17.43;12.53;;;;;;;8.03;100.00;94006.03;5017413;28;20214;-71
2022/05/22 03:42:37;;;;;;;21.20;13.90;;;;;;;8.02;100.00;94006.63;5027781;28;20285;-70
2022/05/22 03:45:22;;;;;;;21.73;14.37;;;;;;;8.07;100.00;93991.69;5005863;28;20193;-72
2022/05/22 03:48:06;;;;;;;17.57;13.43;;;;;;;8.16;100.00;93996.59;4999997;28;20207;-71
2022/05/22 03:50:51;;;;;;;21.07;13.93;;;;;;;8.29;100.00;93990.69;5017109;28;20702;-71
2022/05/22 03:53:40;;;;;;;17.00;13.47;;;;;;;8.41;100.00;93997.28;5009989;28;20222;-72
2022/05/22 03:56:34;;;;;;;18.20;13.87;;;;;;;8.63;100.00;93983.63;5014318;28;20226;-72
2022/05/22 03:59:18;;;;;;;18.03;14.60;;;;;;;8.88;100.00;93984.22;5012473;28;20569;-72
2022/05/22 04:02:02;;;;;;;17.00;13.63;;;;;;;9.05;100.00;93981.34;5033004;28;20217;-72
2022/05/22 04:04:46;;;;;;;17.27;13.63;;;;;;;9.26;100.00;93992.03;5005267;28;20254;-72
2022/05/22 04:07:40;;;;;;;14.80;12.57;;;;;;;9.34;100.00;93987.81;5017266;28;20241;-72
2022/05/22 04:10:26;;;;;;;15.07;12.80;;;;;;;9.41;100.00;93991.81;5032561;28;20214;-73
2022/05/22 04:13:11;;;;;;;18.83;12.70;;;;;;;9.58;100.00;93982.59;5026812;28;20202;-72
2022/05/22 04:15:55;;;;;;;14.73;11.93;;;;;;;9.62;100.00;93978.06;5008266;28;20729;-73
2022/05/22 04:18:39;;;;;;;13.93;10.47;;;;;;;9.69;100.00;93982.75;5032544;28;20198;-73
2022/05/22 04:21:24;;;;;;;13.83;11.47;;;;;;;9.71;100.00;93988.50;5015598;28;20214;-72
2022/05/22 04:27:14;;;;;;;11.10;9.57;;;;;;;9.77;100.00;93993.81;5007048;28;20313;-73
2022/05/22 04:29:59;;;;;;;16.77;11.97;;;;;;;9.80;100.00;93998.25;5026274;28;20197;-73
2022/05/22 04:32:52;;;;;;;12.93;11.27;;;;;;;9.84;100.00;93997.81;5017239;28;20667;-73
2022/05/22 04:35:37;;;;;;;12.00;10.63;;;;;;;10.00;100.00;93994.16;5022629;28;20284;-73
2022/05/22 04:38:22;;;;;;;13.20;9.87;;;;;;;10.11;100.00;93999.19;5021585;28;20218;-73
2022/05/22 04:41:07;;;;;;;14.40;10.83;;;;;;;10.32;100.00;93998.66;5014515;28;20303;-73
2022/05/22 04:43:51;;;;;;;12.67;10.87;;;;;;;10.53;100.00;93992.47;5020973;28;20201;-73
2022/05/22 04:46:36;;;;;;;12.80;10.10;;;;;;;10.71;100.00;93996.56;5027829;28;20191;-74
2022/05/22 04:49:20;;;;;;;10.63;9.63;;;;;;;10.81;100.00;94000.09;5015303;28;20272;-74
2022/05/22 04:52:05;;;;;;;13.43;9.50;;;;;;;10.88;100.00;93998.47;5029981;28;20244;-74
2022/05/22 04:54:51;;;;;;;13.47;9.23;;;;;;;11.02;100.00;93998.72;5023008;28;20691;-74
2022/05/22 04:57:37;;;;;;;11.10;9.97;;;;;;;11.14;100.00;93994.72;5009121;28;20194;-74
2022/05/22 05:00:21;;;;;;;10.73;9.63;;;;;;;11.31;100.00;93999.38;5033867;28;20351;-75
2022/05/22 05:03:21;;;;;;;10.60;9.10;;;;;;;11.41;100.00;93991.69;5015448;28;20314;-74
2022/05/22 05:06:06;;;;;;;9.80;8.80;;;;;;;11.46;100.00;93987.81;5013674;28;20327;-74
2022/05/22 05:08:52;;;;;;;10.67;8.00;;;;;;;11.54;100.00;93984.84;5016628;28;20245;-75
2022/05/22 05:11:41;;;;;;;10.30;6.90;;;;;;;11.62;100.00;93986.13;5033911;28;20234;-74
2022/05/22 05:14:26;;;;;;;7.13;6.43;;;;;;;11.81;100.00;93987.38;5012222;28;20214;-75
2022/05/22 05:17:13;;;;;;;7.50;6.80;;;;;;;12.06;100.00;93984.88;5010692;28;20237;-75
2022/05/22 05:19:58;;;;;;;7.60;6.60;;;;;;;12.17;100.00;93978.56;5016018;28;20222;-75
2022/05/22 05:22:45;;;;;;;9.60;6.17;;;;;;;12.39;100.00;93974.44;5024267;28;20228;-75
2022/05/22 05:25:36;;;;;;;8.53;5.67;;;;;;;12.60;100.00;93970.09;5014644;28;20258;-76
2022/05/22 05:28:21;;;;;;;5.93;5.33;;;;;;;12.73;99.84;93975.19;5026498;28;20573;-76
2022/05/22 05:31:05;;;;;;;8.60;5.03;;;;;;;12.86;100.00;93971.78;5003749;28;20210;-75
2022/05/22 05:33:50;;;;;;;5.00;4.53;;;;;;;12.88;98.86;93980.38;5014329;28;20252;-75
2022/05/22 05:37:00;;;;;;;4.40;4.00;;;;;;;12.99;98.22;93968.41;4999474;28;20284;-75
2022/05/22 05:39:51;;;;;;;6.37;4.40;;;;;;;13.10;97.87;93973.31;5028653;28;20202;-76
2022/05/22 05:42:48;;;;;;;5.53;4.20;;;;;;;13.28;97.36;93960.41;5018648;28;20333;-77
2022/05/22 05:45:33;;;;;;;7.10;4.07;;;;;;;13.51;96.05;93953.34;5014188;28;20202;-76
2022/05/22 05:48:18;;;;;;;4.90;4.33;;;;;;;13.64;96.54;93955.56;5002555;28;20297;-77
2022/05/22 05:51:14;;;;;;;4.30;3.90;;;;;;;13.85;97.46;93952.59;5005320;28;20197;-76
2022/05/22 05:54:12;;;;;;;4.60;4.03;;;;;;;14.04;93.60;93955.16;5013543;28;20274;-78
2022/05/22 05:57:19;;;;;;;3.80;3.50;;;;;;;14.24;93.85;93946.41;5028436;28;20565;-74
2022/05/22 06:00:12;;;;;;;4.03;3.73;;;;;;;14.42;93.54;93933.41;5014057;28;20635;-74
2022/05/22 06:03:08;;;;;;;5.43;4.07;;;;;;;14.58;92.99;93932.22;5005168;28;20238;-74
2022/05/22 06:05:54;;;;;;;5.77;3.80;;;;;;;14.71;90.44;93930.81;4994793;28;20202;-75
2022/05/22 06:08:50;;;;;;;3.97;3.10;;;;;;;14.86;90.24;93918.97;4994337;28;20341;-75
2022/05/22 06:11:53;;;;;;;6.53;3.10;;;;;;;15.14;89.15;93919.06;5002149;28;20206;-74
2022/05/22 06:14:48;;;;;;;6.63;2.63;;;;;;;15.28;88.71;93911.34;5001162;28;20199;-75
2022/05/22 06:17:38;;;;;;;7.43;3.10;;;;;;;15.45;87.62;93919.31;4994386;28;20198;-76
2022/05/22 06:20:25;;;;;;;5.00;3.00;;;;;;;15.51;87.04;93925.28;4989093;28;20198;-75
2022/05/22 06:23:09;;;;;;;4.07;2.70;;;;;;;15.67;85.85;93934.66;4988799;28;20204;-76
2022/05/22 06:26:18;;;;;;;6.83;2.73;;;;;;;15.82;85.27;93918.44;4983293;28;20246;-75
2022/05/22 06:29:25;;;;;;;3.57;2.57;;;;;;;15.95;84.13;93912.03;5002289;28;20323;-76
2022/05/22 06:32:30;;;;;;;3.90;2.37;;;;;;;16.23;84.34;93919.16;4995112;28;20210;-76
2022/05/22 06:35:41;;;;;;;3.57;2.67;;;;;;;16.37;83.11;93924.75;4983360;28;20636;-75
2022/05/22 06:42:34;;;;;;;4.47;2.10;;;;;;;16.62;75.92;93906.91;4961976;28;20571;-75
2022/05/22 06:45:31;;;;;;;3.07;1.97;;;;;;;16.65;77.73;93902.84;4986344;28;20198;-75
2022/05/22 06:48:21;;;;;;;2.07;1.73;;;;;;;16.85;75.58;93910.19;5000749;28;20620;-74
2022/05/22 06:51:30;;;;;;;2.63;1.83;;;;;;;17.05;75.37;93904.75;4988228;28;20635;-74
2022/05/22 06:54:14;;;;;;;4.90;2.40;;;;;;;17.15;74.62;93893.91;5002257;28;20545;-74
2022/05/22 06:56:58;;;;;;;3.20;1.93;;;;;;;17.18;73.29;93898.28;5003655;28;20324;-74
2022/05/22 06:59:57;;;;;;;6.73;2.07;;;;;;;17.45;72.43;93891.00;4982883;28;20250;-74
2022/05/22 07:03:04;;;;;;;3.23;1.53;;;;;;;17.76;70.31;93897.41;4981221;28;20235;-74
2022/05/22 07:06:24;;;;;;;4.03;1.90;;;;;;;18.17;70.44;93894.22;4948002;28;20681;-74
2022/05/22 07:09:27;;;;;;;2.77;1.77;;;;;;;18.41;71.19;93890.94;5005511;28;20475;-74
2022/05/22 07:12:30;;;;;;;3.90;1.83;;;;;;;18.54;69.95;93890.06;5007385;28;20227;-74
2022/05/22 07:16:03;;;;;;;3.13;2.03;;;;;;;18.57;69.46;93897.31;4982315;28;20718;-74
2022/05/22 07:18:54;;;;;;;2.97;1.95;;;;;;;18.96;66.72;93894.63;4992604;28;20295;-74
2022/05/22 07:21:51;;;;;;;4.97;1.80;;;;;;;19.06;65.22;93891.47;5003629;28;20283;-74
2022/05/22 07:25:13;;;;;;;2.70;2.00;;;;;;;19.14;67.51;93893.88;4962131;28;20248;-74
2022/05/22 07:28:24;;;;;;;2.15;1.85;;;;;;;19.57;63.57;93897.00;4975593;28;20673;-73
2022/05/22 07:31:23;;;;;;;4.32;1.48;;;;;;;20.42;60.00;93894.41;4983299;28;20227;-74
2022/05/22 07:34:08;;;;;;;2.40;1.90;;;;;;;19.79;60.57;93895.00;5002253;28;20799;-74
2022/05/22 07:37:21;;;;;;;4.50;1.55;;;;;;;20.18;60.43;93897.06;4991186;28;20302;-73
2022/05/22 07:40:21;;;;;;;1.90;1.27;;;;;;;20.84;55.49;93891.50;4977583;28;20299;-73
2022/05/22 07:43:35;;;;;;;1.73;1.00;;;;;;;20.36;54.60;93885.66;4983066;28;20290;-73
2022/05/22 07:46:25;;;;;;;3.88;1.17;;;;;;;20.90;53.84;93894.53;4978092;28;20336;-74
2022/05/22 07:52:39;;;;;;;4.55;1.20;;;;;;;22.41;48.89;93889.03;5002923;28;20230;-74
2022/05/22 07:55:42;;;;;;;2.97;1.15;;;;;;;22.83;46.25;93875.88;5001074;28;20226;-74
2022/05/22 07:58:42;;;;;;;1.63;1.20;;;;;;;22.58;45.09;93885.94;5004737;28;20243;-74
2022/05/22 08:01:46;;;;;;;2.80;1.00;;;;;;;23.22;44.39;93885.38;4983434;28;20274;-74
2022/05/22 08:04:51;;;;;;;5.57;1.20;;;;;;;24.27;42.61;93881.94;5017567;28;20260;-74
2022/05/22 08:07:56;;;;;;;0.98;0.88;;;;;;;23.92;40.18;93877.66;5013519;28;20198;-74
2022/05/22 08:11:15;;;;;;;2.00;1.00;;;;;;;24.88;38.00;93880.16;4950298;28;20197;-74
2022/05/22 08:14:18;;;;;;;2.47;0.88;;;;;;;25.55;36.99;93879.09;5022173;28;20265;-74
2022/05/22 08:17:03;;;;;;;1.80;0.90;;;;;;;25.86;36.75;93879.56;5038442;28;20533;-74
2022/05/22 08:19:48;;;;;;;1.83;1.00;;;;;;;25.96;37.33;93871.81;5028471;28;20265;-75
2022/05/22 08:22:46;;;;;;;5.60;1.05;;;;;;;26.45;36.53;93873.13;5035757;28;20706;-74
2022/05/22 08:25:53;;;;;;;4.22;1.23;;;;;;;23.90;41.36;93865.44;5009478;28;20198;-74
2022/05/22 08:28:40;;;;;;;4.90;2.58;;;;;;;24.37;41.82;93867.84;5006893;28;20235;-74
2022/05/22 08:31:25;;;;;;;1.35;0.60;;;;;;;25.06;35.17;93865.47;5016959;28;20285;-74
2022/05/22 08:34:13;;;;;;;61.42;54.28;;;;;;;25.34;32.94;93872.34;5012236;28;20210;-74
2022/05/22 08:36:57;;;;;;;2.00;1.23;;;;;;;24.23;34.04;93870.41;5028039;28;20225;-75
2022/05/22 08:39:41;;;;;;;8.82;6.90;;;;;;;25.06;34.93;93863.28;5033500;28;20193;-74
2022/05/22 08:42:36;;;;;;;1.58;0.60;;;;;;;24.00;34.93;93854.94;5032715;28;20199;-74
2022/05/22 08:45:43;;;;;;;4.47;0.80;;;;;;;25.02;33.40;93863.25;5031373;28;20205;-74
2022/05/22 08:48:57;;;;;;;1.83;0.80;;;;;;;25.59;31.89;93861.25;5030586;28;20678;-74
2022/05/22 08:51:50;;;;;;;1.92;0.90;;;;;;;25.47;30.43;93863.94;5029903;28;20233;-74
2022/05/22 08:54:40;;;;;;;2.95;0.70;;;;;;;25.72;33.43;93860.00;5004966;28;20289;-74
2022/05/22 09:00:33;;;;;;;0.93;0.55;;;;;;;24.97;30.74;93856.72;5031536;28;20213;-73
2022/05/22 09:03:32;;;;;;;2.13;0.75;;;;;;;26.07;31.26;93859.00;5032627;28;20254;-73
2022/05/22 09:06:23;;;;;;;1.52;0.68;;;;;;;25.73;31.55;93856.44;5008761;28;20678;-72
2022/05/22 09:09:06;;;;;;;1.25;0.88;;;;;;;26.69;32.02;93855.41;5012488;28;20234;-73
2022/05/22 09:12:08;;;;;;;2.00;1.55;;;;;;;26.73;30.22;93858.31;5016496;28;20570;-73
2022/05/22 09:15:04;;;;;;;1.73;1.55;;;;;;;26.45;33.28;93849.41;5008492;28;20261;-73
2022/05/22 09:17:51;;;;;;;2.85;0.98;;;;;;;26.17;32.08;93862.00;5026013;28;20286;-73
2022/05/22 09:20:57;;;;;;;4.60;0.95;;;;;;;26.80;30.64;93848.31;5010825;28;20203;-73
2022/05/22 09:24:03;;;;;;;3.15;0.88;;;;;;;26.75;32.66;93851.84;5017696;28;20719;-73
2022/05/22 09:27:04;;;;;;;1.67;1.05;;;;;;;26.15;33.14;93853.38;4999075;28;20254;-73
2022/05/22 09:30:40;;;;;;;2.45;0.93;;;;;;;26.57;32.61;93850.25;5010269;28;20202;-73
2022/05/22 09:33:27;;;;;;;3.55;1.40;;;;;;;27.49;30.77;93848.88;4986667;28;20283;-74
2022/05/22 09:36:16;;;;;;;4.03;3.40;;;;;;;27.34;31.31;93844.47;5018162;28;20225;-74
2022/05/22 09:39:12;;;;;;;1.08;0.70;;;;;;;26.42;30.96;93845.06;5001685;28;20214;-74
2022/05/22 09:42:03;;;;;;;1.33;0.70;;;;;;;28.09;29.45;93825.44;5010799;28;20257;-73
2022/05/22 09:45:13;;;;;;;2.15;0.60;;;;;;;28.91;27.40;93837.94;5000514;28;20231;-73
2022/05/22 09:48:04;;;;;;;95.72;85.70;;;;;;;28.90;27.63;93842.25;5007781;28;20700;-74
2022/05/22 09:51:35;;;;;;;9.68;8.77;;;;;;;29.37;27.31;93845.19;5011073;28;20198;-73
2022/05/22 09:54:53;;;;;;;1.60;0.75;;;;;;;29.61;26.37;93833.59;4955892;28;20219;-73
2022/05/22 09:57:43;;;;;;;3.63;2.95;;;;;;;29.57;27.40;93827.81;4967394;28;20201;-73
2022/05/22 10:00:53;;;;;;;2.08;0.80;;;;;;;29.78;27.25;93820.56;5008927;28;20238;-73
2022/05/22 10:03:49;;;;;;;0.98;0.88;;;;;;;29.82;27.05;93823.44;5022471;28;20252;-73
2022/05/22 10:06:51;;;;;;;2.58;0.90;;;;;;;29.38;27.73;93817.78;5014359;28;20233;-73
2022/05/22 10:10:06;;;;;;;1.95;0.70;;;;;;;30.38;25.74;93822.50;5032083;28;20201;-73
2022/05/22 10:12:56;;;;;;;0.50;0.50;;;;;;;29.79;26.27;93824.91;5030367;28;20263;-73
2022/05/22 10:15:46;;;;;;;4.50;1.08;;;;;;;29.83;26.32;93801.75;5032396;28;20277;-73
2022/05/22 10:18:45;;;;;;;1.70;0.75;;;;;;;29.89;26.50;93810.41;5022090;28;20206;-73
2022/05/22 10:21:51;;;;;;;2.15;0.95;;;;;;;31.21;25.78;93809.69;5015573;28;20210;-73
2022/05/22 10:24:53;;;;;;;2.33;0.90;;;;;;;31.79;23.39;93801.94;5028329;28;20205;-73
2022/05/22 10:27:57;;;;;;;1.40;0.68;;;;;;;31.93;23.99;93816.97;5030306;28;20990;-73
2022/05/22 10:30:58;;;;;;;1.88;0.70;;;;;;;31.99;23.41;93811.09;5030897;28;20204;-71
2022/05/22 10:34:22;;;;;;;2.60;0.98;;;;;;;31.21;24.31;93803.91;5029967;28;20210;-71
2022/05/22 10:37:46;;;;;;;1.40;0.73;;;;;;;29.82;26.04;93797.44;5023534;28;20713;-72
2022/05/22 10:43:36;;;;;;;1.60;0.68;;;;;;;32.70;22.88;93797.91;5007247;28;20249;-71
2022/05/22 10:46:20;;;;;;;1.95;0.90;;;;;;;32.33;22.94;93792.59;5022683;28;20226;-71
2022/05/22 10:49:04;;;;;;;1.67;0.77;;;;;;;33.74;22.22;93783.16;5019551;28;20210;-70
2022/05/22 10:52:22;;;;;;;1.38;0.65;;;;;;;33.60;21.64;93774.66;5004926;28;20203;-73
2022/05/22 10:55:18;;;;;;;2.22;0.90;;;;;;;33.47;21.81;93787.97;5024904;28;20206;-72
2022/05/22 10:58:24;;;;;;;3.88;0.70;;;;;;;34.51;20.11;93781.59;5019484;28;20209;-73
2022/05/22 11:01:17;;;;;;;0.60;0.60;;;;;;;34.70;20.72;93779.75;5031272;28;20249;-73
2022/05/22 11:04:01;;;;;;;1.67;0.60;;;;;;;33.76;21.16;93773.69;5010594;28;20226;-72
2022/05/22 11:06:58;;;;;;;0.82;0.63;;;;;;;33.33;20.84;93776.63;5005408;28;20206;-72
2022/05/22 11:09:47;;;;;;;1.35;0.80;;;;;;;34.17;20.48;93780.13;5006985;28;20226;-72
2022/05/22 11:12:32;;;;;;;1.73;0.73;;;;;;;33.92;20.68;93761.72;4999624;28;20207;-71
2022/05/22 11:15:27;;;;;;;2.67;0.80;;;;;;;34.47;21.10;93762.03;5002151;28;20295;-71
2022/05/22 11:18:23;;;;;;;1.58;0.82;;;;;;;34.63;20.42;93752.22;4991094;28;20202;-71
2022/05/22 11:21:13;;;;;;;3.38;0.70;;;;;;;34.52;19.74;93753.94;5002622;28;20215;-72
2022/05/22 11:24:27;;;;;;;1.60;0.80;;;;;;;33.37;20.48;93741.69;4984675;28;20203;-72
2022/05/22 11:27:19;;;;;;;1.45;0.68;;;;;;;31.52;22.37;93735.56;4999660;28;20262;-72
2022/05/22 11:30:06;;;;;;;1.10;0.75;;;;;;;33.72;20.31;93736.69;4999227;28;20211;-71
2022/05/22 11:33:24;;;;;;;4.00;0.77;;;;;;;34.53;20.24;93737.19;5005690;28;20745;-71
2022/05/22 11:36:39;;;;;;;2.63;0.68;;;;;;;34.34;20.00;93733.97;4982657;28;20226;-71
2022/05/22 11:39:45;;;;;;;3.08;0.90;;;;;;;35.30;18.83;93736.09;4996020;28;20203;-71
2022/05/22 11:42:34;;;;;;;1.50;0.80;;;;;;;33.62;20.96;93720.13;5002674;28;20265;-71
2022/05/22 11:45:21;;;;;;;3.58;0.60;;;;;;;34.49;20.81;93720.53;5002342;28;20207;-71
2022/05/22 11:48:37;;;;;;;2.65;0.77;;;;;;;33.92;21.44;93721.03;5004075;28;20275;-71
2022/05/22 11:51:30;;;;;;;0.73;0.50;;;;;;;34.11;20.62;93725.69;5007239;28;20206;-71
2022/05/22 11:54:39;;;;;;;1.65;0.70;;;;;;;34.56;19.78;93724.75;5012849;28;20244;-71
2022/05/22 11:57:34;;;;;;;1.08;0.77;;;;;;;35.17;20.53;93717.47;5002278;28;20303;-70
2022/05/22 12:00:36;;;;;;;1.30;0.82;;;;;;;34.39;21.06;93712.03;5012986;28;20202;-70
2022/05/22 12:04:06;;;;;;;1.10;0.77;;;;;;;35.60;18.71;93714.91;5020745;28;20268;-71
2022/05/22 12:07:18;;;;;;;1.45;0.95;;;;;;;37.28;18.49;93706.91;4967665;28;20253;-70
2022/05/22 12:10:32;;;;;;;1.65;0.73;;;;;;;36.63;18.92;93713.41;5011256;28;20198;-70
2022/05/22 12:13:23;;;;;;;1.10;0.40;;;;;;;38.74;16.50;93692.09;5027825;28;20273;-71
2022/05/22 12:16:19;;;;;;;1.10;0.68;;;;;;;36.78;16.50;93685.91;5021560;28;20257;-71
2022/05/22 12:19:28;;;;;;;2.70;0.65;;;;;;;39.53;14.78;93689.56;5006523;28;20248;-71
2022/05/22 12:22:20;;;;;;;2.38;0.80;;;;;;;36.95;16.82;93682.47;5027334;28;20206;-70
2022/05/22 12:25:07;;;;;;;2.75;0.70;;;;;;;38.55;16.62;93686.25;5027167;28;20601;-71
2022/05/22 12:27:53;;;;;;;1.75;0.70;;;;;;;39.35;15.99;93687.41;5013622;28;20558;-71
2022/05/22 12:30:39;;;;;;;1.92;0.60;;;;;;;41.01;14.79;93696.78;5021450;28;20205;-71
2022/05/22 12:33:27;;;;;;;3.08;0.60;;;;;;;39.74;14.63;93682.81;5032320;28;20206;-72
2022/05/22 12:36:12;;;;;;;1.23;0.65;;;;;;;39.42;15.11;93685.66;4998166;28;20222;-71
2022/05/22 12:39:06;;;;;;;1.63;0.60;;;;;;;39.88;14.32;93682.19;5020865;28;20218;-71
2022/05/22 12:42:05;;;;;;;1.67;0.70;;;;;;;36.59;16.83;93678.50;5009059;28;20318;-71
2022/05/22 12:44:50;;;;;;;1.90;0.82;;;;;;;36.67;16.79;93678.25;5025387;28;20253;-70
2022/05/22 12:47:46;;;;;;;0.90;0.70;;;;;;;39.90;15.49;93682.13;5008473;28;20198;-71
2022/05/22 12:50:36;;;;;;;0.93;0.63;;;;;;;40.98;14.71;93687.38;5024012;28;20249;-71
2022/05/22 12:53:29;;;;;;;0.98;0.60;;;;;;;42.33;14.77;93682.66;5016202;28;20205;-71
2022/05/22 12:56:28;;;;;;;1.55;0.60;;;;;;;40.97;15.29;93674.19;5023329;28;20229;-71
2022/05/22 12:59:19;;;;;;;2.75;0.70;;;;;;;41.17;14.68;93667.31;5023980;28;20206;-72
2022/05/22 13:02:04;;;;;;;1.85;0.70;;;;;;;39.90;15.44;93662.28;5031056;28;20233;-71
2022/05/22 13:04:55;;;;;;;0.75;0.40;;;;;;;40.22;16.20;93657.19;5005560;28;20245;-71
2022/05/22 13:07:39;;;;;;;3.97;0.85;;;;;;;40.13;15.63;93661.25;4990564;28;20642;-72
2022/05/22 13:10:33;;;;;;;1.00;0.50;;;;;;;40.83;14.75;93665.34;5001436;28;20206;-71
2022/05/22 13:13:26;;;;;;;1.85;0.70;;;;;;;39.25;15.24;93649.72;5010025;28;20590;-71
2022/05/22 13:16:11;;;;;;;2.15;0.80;;;;;;;42.34;13.53;93648.03;4993329;28;20234;-71
2022/05/22 13:18:55;;;;;;;2.75;0.63;;;;;;;41.55;13.58;93643.34;5001397;28;20559;-72
2022/05/22 13:21:40;;;;;;;1.50;0.60;;;;;;;40.55;14.90;93635.09;5000206;28;20218;-72
2022/05/22 13:24:31;;;;;;;1.05;0.50;;;;;;;39.56;15.74;93635.19;4989678;28;20588;-71
2022/05/22 13:27:30;;;;;;;1.52;0.50;;;;;;;39.21;16.05;93627.13;5006237;28;20202;-72
2022/05/22 13:30:28;;;;;;;0.90;0.65;;;;;;;40.52;15.91;93636.69;4986927;28;20203;-72
2022/05/22 13:33:15;;;;;;;2.15;0.60;;;;;;;41.43;14.88;93632.91;5009611;28;20651;-72
2022/05/22 13:36:05;;;;;;;1.58;0.80;;;;;;;42.32;14.61;93621.63;5004074;28;20675;-71
2022/05/22 13:38:54;;;;;;;0.73;0.60;;;;;;;42.32;13.29;93624.56;5010431;28;20259;-72
2022/05/22 13:42:25;;;;;;;1.48;0.80;;;;;;;40.86;14.64;93628.47;4997843;28;20199;-72
2022/05/22 13:45:20;;;;;;;1.30;0.50;;;;;;;41.34;13.13;93637.81;5006456;28;20764;-72
2022/05/22 13:48:17;;;;;;;4.82;0.60;;;;;;;40.66;13.86;93624.28;5011076;28;20699;-72